createdAt,value
2022-09-01T00:01:50.197Z,99472.16
2022-09-01T00:04:21.136Z,99469.59
2022-09-01T00:06:48.952Z,99471.31
2022-09-01T00:09:18.749Z,99454.94
2022-09-01T00:11:50.513Z,99473.88
2022-09-01T00:14:30.405Z,99476.44
2022-09-01T00:17:00.105Z,99468.69
2022-09-01T00:19:27.359Z,99461.84
2022-09-01T00:21:55.095Z,99472.16
2022-09-01T00:24:22.347Z,99473.81
2022-09-01T00:26:49.339Z,99476.44
2022-09-01T00:29:16.364Z,99478.13
2022-09-01T00:31:43.843Z,99473.81
2022-09-01T00:34:11.290Z,99474.69
2022-09-01T00:36:38.120Z,99448.00
2022-09-01T00:39:06.874Z,99462.63
2022-09-01T00:41:38.235Z,99475.50
2022-09-01T00:44:13.480Z,99470.34
2022-09-01T00:46:55.458Z,99476.38
2022-09-01T00:49:35.714Z,99475.50
2022-09-01T00:52:13.706Z,99453.06
2022-09-01T00:54:44.860Z,99487.41
2022-09-01T00:57:13.187Z,99464.13
2022-09-01T00:59:50.972Z,99477.03
2022-09-01T01:02:17.646Z,99461.50
2022-09-01T01:04:44.400Z,99479.53
2022-09-01T01:07:12.618Z,99478.66
2022-09-01T01:09:43.254Z,99445.91
2022-09-01T01:12:18.663Z,99470.84
2022-09-01T01:14:50.468Z,99467.41
2022-09-01T01:17:19.737Z,99475.94
2022-09-01T01:20:08.851Z,99463.09
2022-09-01T01:22:58.757Z,99475.09
2022-09-01T01:25:26.481Z,99476.72
2022-09-01T01:28:14.242Z,99481.03
2022-09-01T01:30:52.372Z,99465.50
2022-09-01T01:33:22.670Z,99474.06
2022-09-01T01:35:51.768Z,99470.63
2022-09-01T01:38:21.572Z,99444.75
2022-09-01T01:40:49.498Z,99471.38
2022-09-01T01:43:20.012Z,99467.06
2022-09-01T01:46:02.478Z,99463.59
2022-09-01T01:48:30.223Z,99461.84
2022-09-01T01:51:00.804Z,99455.88
2022-09-01T01:53:28.948Z,99463.53
2022-09-01T01:55:56.063Z,99454.97
2022-09-01T01:58:24.527Z,99431.69
2022-09-01T02:00:54.251Z,99455.75
2022-09-01T02:03:25.054Z,99448.00
2022-09-01T02:05:53.502Z,99446.19
2022-09-01T02:08:22.857Z,99442.66
2022-09-01T02:10:51.701Z,99449.47
2022-09-01T02:13:20.958Z,99438.19
2022-09-01T02:15:53.822Z,99445.06
2022-09-01T02:18:36.027Z,99451.81
2022-09-01T02:21:10.587Z,99451.00
2022-09-01T02:23:41.060Z,99452.66
2022-09-01T02:26:18.522Z,99455.28
2022-09-01T02:28:54.221Z,99434.59
2022-09-01T02:31:23.023Z,99459.59
2022-09-01T02:33:49.794Z,99462.16
2022-09-01T02:36:19.289Z,99456.13
2022-09-01T02:38:53.276Z,99456.22
2022-09-01T02:41:23.722Z,99458.78
2022-09-01T02:43:50.992Z,99441.63
2022-09-01T02:46:20.304Z,99458.81
2022-09-01T02:48:51.362Z,99463.88
2022-09-01T02:51:20.774Z,99467.28
2022-09-01T02:53:53.029Z,99458.69
2022-09-01T02:56:25.015Z,99456.19
2022-09-01T02:58:52.998Z,99462.13
2022-09-01T03:01:32.017Z,99473.22
2022-09-01T03:04:01.800Z,99467.19
2022-09-01T03:06:31.419Z,99465.47
2022-09-01T03:09:01.878Z,99466.31
2022-09-01T03:11:31.559Z,99470.63
2022-09-01T03:13:58.513Z,99474.03
2022-09-01T03:16:25.182Z,99482.56
2022-09-01T03:18:52.568Z,99494.50
2022-09-01T03:21:20.779Z,99483.41
2022-09-01T03:23:48.444Z,99495.34
2022-09-01T03:26:18.650Z,99457.47
2022-09-01T03:28:46.286Z,99463.53
2022-09-01T03:31:13.137Z,99485.22
2022-09-01T03:33:40.827Z,99477.41
2022-09-01T03:36:14.771Z,99493.78
2022-09-01T03:38:43.939Z,99494.59
2022-09-01T03:41:13.336Z,99497.97
2022-09-01T03:43:47.038Z,99483.31
2022-09-01T03:46:24.370Z,99484.22
2022-09-01T03:48:58.492Z,99499.81
2022-09-01T03:51:26.009Z,99497.97
2022-09-01T03:53:55.010Z,99503.91
2022-09-01T03:56:26.281Z,99503.97
2022-09-01T03:58:56.215Z,99498.88
2022-09-01T04:01:25.033Z,99499.69
2022-09-01T04:03:52.991Z,99501.44
2022-09-01T04:06:20.619Z,99511.66
2022-09-01T04:08:47.582Z,99509.09
2022-09-01T04:11:18.612Z,99511.72
2022-09-01T04:13:46.330Z,99514.25
2022-09-01T04:16:57.494Z,99521.13
2022-09-01T04:19:26.823Z,99518.56
2022-09-01T04:21:56.997Z,99528.84
2022-09-01T04:24:28.375Z,99526.28
2022-09-01T04:27:01.748Z,99533.13
2022-09-01T04:29:29.790Z,99524.56
2022-09-01T04:32:03.619Z,99524.56
2022-09-01T04:34:37.274Z,99520.28
2022-09-01T04:37:13.217Z,99522.03
2022-09-01T04:39:40.304Z,99515.28
2022-09-01T04:42:09.222Z,99529.06
2022-09-01T04:44:36.667Z,99524.84
2022-09-01T04:47:03.592Z,99524.06
2022-09-01T04:49:33.758Z,99518.91
2022-09-01T04:52:00.721Z,99533.63
2022-09-01T04:54:27.368Z,99529.44
2022-09-01T04:56:55.023Z,99521.78
2022-09-01T04:59:24.178Z,99516.72
2022-09-01T05:01:51.112Z,99526.22
2022-09-01T05:04:24.472Z,99521.16
2022-09-01T05:06:59.801Z,99491.94
2022-09-01T05:09:29.068Z,99514.38
2022-09-01T05:11:57.680Z,99524.78
2022-09-01T05:14:25.636Z,99524.84
2022-09-01T05:16:58.808Z,99525.75
2022-09-01T05:19:28.938Z,99524.97
2022-09-01T05:21:57.895Z,99525.91
2022-09-01T05:24:30.194Z,99515.63
2022-09-01T05:26:57.739Z,99528.59
2022-09-01T05:29:25.588Z,99521.78
2022-09-01T05:31:53.179Z,99521.88
2022-09-01T05:34:26.733Z,99524.47
2022-09-01T05:36:56.056Z,99523.63
2022-09-01T05:39:22.887Z,99514.22
2022-09-01T05:41:49.883Z,99513.34
2022-09-01T05:44:17.017Z,99498.75
2022-09-01T05:46:44.678Z,99516.84
2022-09-01T05:49:16.894Z,99512.56
2022-09-01T05:51:50.886Z,99509.13
2022-09-01T05:54:27.383Z,99515.19
2022-09-01T05:56:57.765Z,99510.03
2022-09-01T05:59:31.550Z,99511.75
2022-09-01T06:01:58.838Z,99501.44
2022-09-01T06:04:26.861Z,99487.69
2022-09-01T06:07:05.776Z,99505.75
2022-09-01T06:09:38.175Z,99510.91
2022-09-01T06:12:06.744Z,99509.22
2022-09-01T06:14:34.134Z,99512.63
2022-09-01T06:17:00.999Z,99510.03
2022-09-01T06:19:28.471Z,99496.25
2022-09-01T06:21:56.874Z,99506.56
2022-09-01T06:24:23.592Z,99512.53
2022-09-01T06:26:50.368Z,99509.94
2022-09-01T06:29:17.059Z,99512.47
2022-09-01T06:31:51.745Z,99493.50
2022-09-01T06:34:19.595Z,99511.50
2022-09-01T06:36:49.583Z,99498.56
2022-09-01T06:39:26.601Z,99489.94
2022-09-01T06:41:54.776Z,99513.94
2022-09-01T06:44:24.959Z,99516.47
2022-09-01T06:46:52.625Z,99508.66
2022-09-01T06:49:21.496Z,99514.56
2022-09-01T06:51:49.688Z,99518.84
2022-09-01T06:54:19.927Z,99520.50
2022-09-01T06:56:51.363Z,99523.88
2022-09-01T06:59:19.924Z,99526.34
2022-09-01T07:01:49.028Z,99511.69
2022-09-01T07:04:21.480Z,99530.53
2022-09-01T07:07:00.097Z,99527.94
2022-09-01T07:09:47.098Z,99529.66
2022-09-01T07:12:27.017Z,99515.00
2022-09-01T07:17:43.159Z,99537.41
2022-09-01T07:20:27.261Z,99535.63
2022-09-01T07:23:04.515Z,99544.25
2022-09-01T07:25:48.423Z,99544.22
2022-09-01T07:28:25.478Z,99539.03
2022-09-01T07:30:55.260Z,99545.03
2022-09-01T07:33:44.171Z,99539.84
2022-09-01T07:36:27.177Z,99535.47
2022-09-01T07:44:28.821Z,99544.91
2022-09-01T07:52:31.558Z,99535.53
2022-09-01T07:54:58.200Z,99540.69
2022-09-01T07:57:24.945Z,99532.84
2022-09-01T07:59:55.637Z,99539.69
2022-09-01T08:02:22.414Z,99528.44
2022-09-01T08:04:49.124Z,99527.50
2022-09-01T08:07:16.366Z,99524.00
2022-09-01T08:09:44.114Z,99527.38
2022-09-01T08:12:11.489Z,99523.75
2022-09-01T08:14:38.208Z,99520.13
2022-09-01T08:19:53.597Z,99519.78
2022-09-01T08:22:25.226Z,99520.53
2022-09-01T08:24:53.433Z,99523.00
2022-09-01T08:27:20.787Z,99524.69
2022-09-01T08:29:48.833Z,99514.13
2022-09-01T08:32:15.504Z,99511.34
2022-09-01T08:34:43.517Z,99513.75
2022-09-01T08:37:10.075Z,99500.63
2022-09-01T08:39:36.683Z,99505.69
2022-09-01T08:42:41.696Z,99503.75
2022-09-01T08:45:11.061Z,99492.44
2022-09-01T08:47:58.366Z,99494.06
2022-09-01T08:50:25.535Z,99492.94
2022-09-01T08:53:10.749Z,99485.84
2022-09-01T08:55:43.910Z,99489.97
2022-09-01T08:58:15.202Z,99485.53
2022-09-01T09:00:50.516Z,99487.94
2022-09-01T09:03:40.578Z,99489.63
2022-09-01T09:06:16.399Z,99473.63
2022-09-01T09:08:58.019Z,99500.16
2022-09-01T09:11:27.396Z,99497.56
2022-09-01T09:13:59.885Z,99501.09
2022-09-01T09:16:32.686Z,99498.41
2022-09-01T09:19:06.495Z,99470.78
2022-09-01T09:21:37.421Z,99486.13
2022-09-01T09:24:10.551Z,99494.69
2022-09-01T09:26:44.791Z,99486.09
2022-09-01T09:29:11.649Z,99484.38
2022-09-01T09:31:45.898Z,99475.69
2022-09-01T09:34:27.808Z,99490.28
2022-09-01T09:36:57.025Z,99480.88
2022-09-01T09:39:23.906Z,99489.03
2022-09-01T09:42:07.822Z,99481.38
2022-09-01T09:44:41.431Z,99493.19
2022-09-01T09:47:27.258Z,99491.34
2022-09-01T09:50:38.164Z,99469.78
2022-09-01T09:53:27.251Z,99489.25
2022-09-01T09:56:19.804Z,99487.34
2022-09-01T09:58:48.756Z,99486.38
2022-09-01T10:01:30.706Z,99496.56
2022-09-01T10:04:00.510Z,99493.91
2022-09-01T10:06:36.195Z,99484.97
2022-09-01T10:09:04.792Z,99480.34
2022-09-01T10:11:35.619Z,99481.09
2022-09-01T10:14:06.248Z,99484.41
2022-09-01T10:16:37.668Z,99486.56
2022-09-01T10:19:12.563Z,99491.38
2022-09-01T10:21:42.691Z,99466.22
2022-09-01T10:24:17.356Z,99495.44
2022-09-01T10:26:52.974Z,99492.03
2022-09-01T10:29:34.758Z,99489.69
2022-09-01T10:32:30.758Z,99484.41
2022-09-01T10:34:56.158Z,99478.00
2022-09-01T10:37:27.635Z,99474.00
2022-09-01T10:40:34.707Z,99472.25
2022-09-01T10:43:25.224Z,99475.06
2022-09-01T10:45:57.903Z,99481.25
2022-09-01T10:48:46.230Z,99467.50
2022-09-01T10:51:19.204Z,99482.81
2022-09-01T10:53:52.598Z,99472.22
2022-09-01T10:56:51.339Z,99456.66
2022-09-01T10:59:40.104Z,99471.03
2022-09-01T11:02:26.971Z,99468.28
2022-09-01T11:04:54.505Z,99472.47
2022-09-01T11:07:50.084Z,99478.47
2022-09-01T11:10:35.794Z,99468.22
2022-09-01T11:13:21.759Z,99470.00
2022-09-01T11:15:48.951Z,99466.75
2022-09-01T11:18:26.075Z,99468.28
2022-09-01T11:20:55.426Z,99470.38
2022-09-01T11:23:30.611Z,99462.53
2022-09-01T11:26:32.406Z,99468.44
2022-09-01T11:28:59.518Z,99474.09
2022-09-01T11:31:31.143Z,99443.09
2022-09-01T11:34:13.841Z,99468.19
2022-09-01T11:36:47.416Z,99473.25
2022-09-01T11:39:17.853Z,99464.09
2022-09-01T11:41:51.747Z,99472.22
2022-09-01T11:44:42.769Z,99454.63
2022-09-01T11:47:19.181Z,99468.09
2022-09-01T11:49:56.990Z,99457.38
2022-09-01T11:52:27.973Z,99471.81
2022-09-01T11:54:54.739Z,99466.41
2022-09-01T11:57:22.955Z,99467.25
2022-09-01T11:59:50.384Z,99456.59
2022-09-01T12:02:19.049Z,99449.31
2022-09-01T12:04:46.354Z,99446.00
2022-09-01T12:07:43.089Z,99440.13
2022-09-01T12:10:22.035Z,99454.97
2022-09-01T12:12:48.592Z,99448.56
2022-09-01T12:15:25.343Z,99446.56
2022-09-01T12:17:53.691Z,99449.28
2022-09-01T12:20:29.405Z,99446.56
2022-09-01T12:22:58.387Z,99449.22
2022-09-01T12:25:30.399Z,99445.88
2022-09-01T12:28:00.147Z,99445.28
2022-09-01T12:30:26.894Z,99441.22
2022-09-01T12:33:22.809Z,99441.41
2022-09-01T12:35:41.886Z,99431.47
2022-09-01T12:38:20.735Z,99429.31
2022-09-01T12:40:50.336Z,99427.63
2022-09-01T12:43:29.239Z,99421.31
2022-09-01T12:45:57.447Z,99423.09
2022-09-01T12:48:38.069Z,99417.31
2022-09-01T12:51:24.532Z,99415.75
2022-09-01T12:53:58.550Z,99415.03
2022-09-01T12:56:36.167Z,99425.81
2022-09-01T12:59:14.143Z,99431.91
2022-09-01T13:01:42.978Z,99426.28
2022-09-01T13:04:22.381Z,99426.69
2022-09-01T13:06:49.839Z,99434.03
2022-09-01T13:09:16.446Z,99416.53
2022-09-01T13:14:31.721Z,99418.09
2022-09-01T13:16:58.340Z,99422.91
2022-09-01T13:19:28.814Z,99422.06
2022-09-01T13:21:57.347Z,99423.81
2022-09-01T13:24:28.688Z,99422.13
2022-09-01T13:29:43.822Z,99406.09
2022-09-01T13:32:19.336Z,99407.66
2022-09-01T13:34:47.334Z,99408.34
2022-09-01T13:37:14.123Z,99419.72
2022-09-01T13:39:40.671Z,99416.81
2022-09-01T13:42:07.390Z,99410.75
2022-09-01T13:44:35.425Z,99407.09
2022-09-01T13:47:28.780Z,99424.88
2022-09-01T13:52:35.766Z,99405.91
2022-09-01T13:55:02.438Z,99394.63
2022-09-01T13:57:31.526Z,99405.53
2022-09-01T14:00:10.997Z,99407.75
2022-09-01T14:02:43.062Z,99411.31
2022-09-01T14:05:10.529Z,99413.09
2022-09-01T14:07:37.524Z,99414.63
2022-09-01T14:10:05.070Z,99411.41
2022-09-01T14:12:32.587Z,99417.03
2022-09-01T14:17:56.229Z,99424.47
2022-09-01T14:20:25.796Z,99428.13
2022-09-01T14:22:52.705Z,99427.66
2022-09-01T14:25:20.629Z,99421.41
2022-09-01T14:27:48.996Z,99430.16
2022-09-01T14:30:30.461Z,99431.19
2022-09-01T14:33:01.533Z,99441.22
2022-09-01T14:35:30.738Z,99437.97
2022-09-01T14:37:59.004Z,99432.75
2022-09-01T14:40:26.070Z,99443.84
2022-09-01T14:42:53.191Z,99446.66
2022-09-01T14:45:25.513Z,99429.19
2022-09-01T14:47:54.930Z,99438.28
2022-09-01T14:50:23.684Z,99440.00
2022-09-01T14:52:54.412Z,99445.31
2022-09-01T14:55:25.721Z,99433.50
2022-09-01T14:57:52.465Z,99440.38
2022-09-01T15:00:19.883Z,99439.63
2022-09-01T15:02:47.421Z,99440.56
2022-09-01T15:05:14.566Z,99442.06
2022-09-01T15:07:42.715Z,99444.72
2022-09-01T15:10:15.792Z,99440.09
2022-09-01T15:12:47.135Z,99438.59
2022-09-01T15:15:13.862Z,99434.78
2022-09-01T15:17:43.344Z,99442.53
2022-09-01T15:20:31.429Z,99449.16
2022-09-01T15:22:58.691Z,99445.47
2022-09-01T15:25:25.601Z,99443.72
2022-09-01T15:27:52.602Z,99435.78
2022-09-01T15:30:20.251Z,99451.19
2022-09-01T15:32:49.079Z,99447.59
2022-09-01T15:35:16.203Z,99447.47
2022-09-01T15:37:43.409Z,99450.25
2022-09-01T15:40:10.492Z,99453.03
2022-09-01T15:42:38.180Z,99443.00
2022-09-01T15:45:08.329Z,99442.41
2022-09-01T15:47:35.415Z,99439.84
2022-09-01T15:50:06.955Z,99449.78
2022-09-01T15:52:34.767Z,99448.78
2022-09-01T15:55:03.257Z,99460.88
2022-09-01T15:57:29.864Z,99459.94
2022-09-01T15:59:57.402Z,99461.47
2022-09-01T16:02:27.743Z,99453.28
2022-09-01T16:04:56.759Z,99461.31
2022-09-01T16:07:23.770Z,99473.13
2022-09-01T16:09:57.867Z,99465.81
2022-09-01T16:12:26.527Z,99471.91
2022-09-01T16:14:55.189Z,99476.31
2022-09-01T16:17:45.173Z,99479.38
2022-09-01T16:20:21.833Z,99476.19
2022-09-01T16:22:55.516Z,99460.28
2022-09-01T16:25:30.035Z,99483.78
2022-09-01T16:27:57.598Z,99487.66
2022-09-01T16:30:29.119Z,99491.41
2022-09-01T16:33:02.754Z,99483.38
2022-09-01T16:35:44.797Z,99486.06
2022-09-01T16:38:20.582Z,99488.69
2022-09-01T16:40:57.904Z,99482.63
2022-09-01T16:43:37.574Z,99495.94
2022-09-01T16:46:19.471Z,99496.78
2022-09-01T16:48:47.199Z,99496.09
2022-09-01T16:51:19.126Z,99510.66
2022-09-01T16:53:54.147Z,99507.66
2022-09-01T16:56:35.574Z,99507.38
2022-09-01T16:59:24.756Z,99512.31
2022-09-01T17:02:00.038Z,99517.50
2022-09-01T17:04:29.434Z,99518.00
2022-09-01T17:07:09.110Z,99523.47
2022-09-01T17:09:40.713Z,99532.66
2022-09-01T17:12:27.580Z,99539.47
2022-09-01T17:15:06.866Z,99541.28
2022-09-01T17:17:47.789Z,99546.75
2022-09-01T17:20:16.237Z,99544.41
2022-09-01T17:22:57.060Z,99544.72
2022-09-01T17:25:33.717Z,99558.44
2022-09-01T17:28:04.393Z,99550.06
2022-09-01T17:30:36.246Z,99566.13
2022-09-01T17:33:34.546Z,99562.34
2022-09-01T17:36:03.941Z,99564.38
2022-09-01T17:39:03.291Z,99566.31
2022-09-01T17:41:34.367Z,99573.50
2022-09-01T17:44:12.854Z,99576.25
2022-09-01T17:47:12.015Z,99585.09
2022-09-01T17:49:53.321Z,99591.19
2022-09-01T17:52:40.773Z,99592.38
2022-09-01T17:55:38.186Z,99583.88
2022-09-01T17:58:10.355Z,99585.66
2022-09-01T18:00:52.852Z,99598.69
2022-09-01T18:03:44.032Z,99597.88
2022-09-01T18:06:15.700Z,99601.38
2022-09-01T18:08:44.822Z,99598.84
2022-09-01T18:11:50.474Z,99600.69
2022-09-01T18:14:58.424Z,99602.56
2022-09-01T18:17:29.068Z,99607.84
2022-09-01T18:20:09.929Z,99605.41
2022-09-01T18:22:47.336Z,99598.63
2022-09-01T18:25:23.068Z,99607.38
2022-09-01T18:27:50.058Z,99608.34
2022-09-01T18:30:36.360Z,99610.16
2022-09-01T18:33:37.139Z,99611.22
2022-09-01T18:36:41.249Z,99618.28
2022-09-01T18:39:29.466Z,99616.66
2022-09-01T18:42:19.091Z,99614.13
2022-09-01T18:45:24.801Z,99628.94
2022-09-01T18:48:09.156Z,99616.03
2022-09-01T18:51:03.454Z,99626.47
2022-09-01T18:53:44.642Z,99625.78
2022-09-01T18:56:25.090Z,99624.19
2022-09-01T18:58:51.761Z,99630.22
2022-09-01T19:01:40.882Z,99642.31
2022-09-01T19:04:31.926Z,99643.22
2022-09-01T19:07:01.711Z,99638.06
2022-09-01T19:09:42.542Z,99639.84
2022-09-01T19:12:41.211Z,99645.91
2022-09-01T19:15:25.725Z,99611.47
2022-09-01T19:18:12.817Z,99650.28
2022-09-01T19:21:02.620Z,99655.44
2022-09-01T19:23:36.066Z,99658.94
2022-09-01T19:26:07.635Z,99658.94
2022-09-01T19:28:40.196Z,99663.28
2022-09-01T19:31:17.940Z,99664.16
2022-09-01T19:33:51.070Z,99668.44
2022-09-01T19:36:35.575Z,99669.31
2022-09-01T19:39:02.524Z,99677.06
2022-09-01T19:41:53.721Z,99673.63
2022-09-01T19:44:54.898Z,99682.22
2022-09-01T19:47:36.915Z,99673.63
2022-09-01T19:50:06.445Z,99685.69
2022-09-01T19:52:49.425Z,99684.78
2022-09-01T19:55:36.650Z,99683.84
2022-09-01T19:58:15.131Z,99680.41
2022-09-01T20:00:53.519Z,99685.53
2022-09-01T20:03:28.805Z,99687.25
2022-09-01T20:06:05.046Z,99688.09
2022-09-01T20:08:41.776Z,99698.38
2022-09-01T20:11:18.879Z,99701.00
2022-09-01T20:14:03.399Z,99696.69
2022-09-01T20:16:41.708Z,99702.72
2022-09-01T20:19:24.418Z,99705.28
2022-09-01T20:21:51.073Z,99701.84
2022-09-01T20:24:39.635Z,99708.72
2022-09-01T20:27:33.987Z,99712.16
2022-09-01T20:30:07.600Z,99715.59
2022-09-01T20:32:59.807Z,99710.47
2022-09-01T20:35:39.941Z,99716.50
2022-09-01T20:38:36.741Z,99714.72
2022-09-01T20:41:19.499Z,99715.56
2022-09-01T20:43:51.725Z,99722.44
2022-09-01T20:46:20.554Z,99715.50
2022-09-01T20:48:48.023Z,99723.28
2022-09-01T20:51:27.615Z,99724.19
2022-09-01T20:54:23.181Z,99725.06
2022-09-01T20:57:05.030Z,99721.59
2022-09-01T21:00:07.947Z,99728.47
2022-09-01T21:02:34.686Z,99733.59
2022-09-01T21:05:01.303Z,99729.28
2022-09-01T21:07:48.721Z,99736.13
2022-09-01T21:10:45.207Z,99731.84
2022-09-01T21:13:18.964Z,99734.38
2022-09-01T21:15:59.268Z,99730.97
2022-09-01T21:19:27.471Z,99738.72
2022-09-01T21:22:07.846Z,99737.03
2022-09-01T21:24:35.472Z,99733.59
2022-09-01T21:27:07.590Z,99726.75
2022-09-01T21:30:00.288Z,99728.44
2022-09-01T21:32:29.211Z,99729.31
2022-09-01T21:34:56.635Z,99730.16
2022-09-01T21:37:24.827Z,99733.59
2022-09-01T21:39:53.902Z,99730.16
2022-09-01T21:42:24.065Z,99734.41
2022-09-01T21:44:52.102Z,99708.41
2022-09-01T21:47:21.703Z,99737.63
2022-09-01T21:49:48.350Z,99743.53
2022-09-01T21:52:15.021Z,99741.72
2022-09-01T21:54:41.683Z,99741.59
2022-09-01T21:57:08.307Z,99748.41
2022-09-01T21:59:34.978Z,99723.22
2022-09-01T22:02:02.128Z,99755.91
2022-09-01T22:04:28.718Z,99748.16
2022-09-01T22:06:55.345Z,99751.50
2022-09-01T22:09:21.985Z,99748.94
2022-09-01T22:11:50.453Z,99748.19
2022-09-01T22:14:18.514Z,99757.59
2022-09-01T22:16:45.117Z,99756.53
2022-09-01T22:19:12.169Z,99761.63
2022-09-01T22:21:39.845Z,99754.03
2022-09-01T22:24:06.721Z,99756.69
2022-09-01T22:26:34.283Z,99755.91
2022-09-01T22:29:05.625Z,99755.06
2022-09-01T22:31:34.734Z,99749.03
2022-09-01T22:34:01.297Z,99756.78
2022-09-01T22:36:34.755Z,99765.34
2022-09-01T22:39:01.857Z,99754.97
2022-09-01T22:41:30.634Z,99757.56
2022-09-01T22:44:00.181Z,99755.78
2022-09-01T22:46:29.252Z,99763.56
2022-09-01T22:48:57.361Z,99760.09
2022-09-01T22:51:24.970Z,99752.22
2022-09-01T22:53:54.293Z,99765.22
2022-09-01T22:56:24.168Z,99767.75
2022-09-01T22:58:54.313Z,99764.28
2022-09-01T23:01:25.238Z,99773.72
2022-09-01T23:03:52.376Z,99777.13
2022-09-01T23:06:28.149Z,99770.22
2022-09-01T23:08:57.223Z,99771.03
2022-09-01T23:11:24.593Z,99775.31
2022-09-01T23:13:51.689Z,99779.59
2022-09-01T23:16:20.675Z,99762.22
2022-09-01T23:18:49.029Z,99775.22
2022-09-01T23:21:19.323Z,99775.19
2022-09-01T23:23:46.685Z,99770.88
2022-09-01T23:26:14.476Z,99769.03
2022-09-01T23:28:42.886Z,99770.75
2022-09-01T23:31:16.874Z,99776.69
2022-09-01T23:33:44.037Z,99767.22
2022-09-01T23:36:13.861Z,99776.66
2022-09-01T23:38:41.277Z,99774.03
2022-09-01T23:41:13.984Z,99784.25
2022-09-01T23:43:40.654Z,99781.63
2022-09-01T23:46:08.095Z,99785.00
2022-09-01T23:48:34.767Z,99788.38
2022-09-01T23:51:08.654Z,99784.06
2022-09-01T23:53:36.520Z,99774.56
2022-09-01T23:56:08.027Z,99783.94
2022-09-01T23:58:34.751Z,99790.75
